createdAt,value
2018-03-22T00:00:04.357Z,3.77
2018-03-22T00:01:04.146Z,3.80
2018-03-22T00:02:04.169Z,3.71
2018-03-22T00:03:03.996Z,3.74
2018-03-22T00:04:04.109Z,3.82
2018-03-22T00:05:03.822Z,3.89
2018-03-22T00:06:03.785Z,3.88
2018-03-22T00:07:03.665Z,3.84
2018-03-22T00:08:03.697Z,3.78
2018-03-22T00:09:03.516Z,3.82
2018-03-22T00:10:03.503Z,3.75
2018-03-22T00:11:03.341Z,3.80
2018-03-22T00:12:03.308Z,3.77
2018-03-22T00:13:03.170Z,3.72
2018-03-22T00:14:03.252Z,3.67
2018-03-22T00:15:03.002Z,3.70
2018-03-22T00:16:03.034Z,3.64
2018-03-22T00:17:02.873Z,3.59
2018-03-22T00:18:02.837Z,3.44
2018-03-22T00:19:02.681Z,3.44
2018-03-22T00:20:02.786Z,3.35
2018-03-22T00:21:02.516Z,3.22
2018-03-22T00:22:02.549Z,3.26
2018-03-22T00:23:02.407Z,3.12
2018-03-22T00:24:02.360Z,3.26
2018-03-22T00:25:02.189Z,3.25
2018-03-22T00:26:02.179Z,3.23
2018-03-22T00:27:01.994Z,3.19
2018-03-22T00:28:01.970Z,3.22
2018-03-22T00:29:01.831Z,3.26
2018-03-22T00:30:04.454Z,3.19
2018-03-22T00:31:01.673Z,3.19
2018-03-22T00:32:01.691Z,3.16
2018-03-22T00:33:01.500Z,3.16
2018-03-22T00:34:01.501Z,3.17
2018-03-22T00:35:01.361Z,3.26
2018-03-22T00:36:01.312Z,3.22
2018-03-22T00:37:01.917Z,3.25
2018-03-22T00:38:01.116Z,3.16
2018-03-22T00:39:01.016Z,3.10
2018-03-22T00:40:01.102Z,3.19
2018-03-22T00:41:00.858Z,3.19
2018-03-22T00:42:00.832Z,3.30
2018-03-22T00:43:00.677Z,3.15
2018-03-22T00:44:00.650Z,3.16
2018-03-22T00:45:00.504Z,3.12
2018-03-22T00:46:00.492Z,3.15
2018-03-22T00:47:00.335Z,3.05
2018-03-22T00:48:00.378Z,3.13
2018-03-22T00:49:00.167Z,3.16
2018-03-22T00:50:00.170Z,3.17
2018-03-22T00:51:00.019Z,3.19
2018-03-22T00:51:59.978Z,3.26
2018-03-22T00:52:59.828Z,3.25
2018-03-22T00:53:59.785Z,3.16
2018-03-22T00:54:59.674Z,3.10
2018-03-22T00:55:59.743Z,3.15
2018-03-22T00:56:59.498Z,3.16
2018-03-22T00:57:59.509Z,3.15
2018-03-22T00:58:59.329Z,3.15
2018-03-22T00:59:59.316Z,3.20
2018-03-22T01:00:59.175Z,3.25
2018-03-22T01:01:59.119Z,3.22
2018-03-22T01:02:58.993Z,3.28
2018-03-22T01:03:59.036Z,3.30
2018-03-22T01:04:58.825Z,3.30
2018-03-22T01:05:59.910Z,3.35
2018-03-22T01:06:58.764Z,3.25
2018-03-22T01:07:58.648Z,3.20
2018-03-22T01:08:58.499Z,3.31
2018-03-22T01:09:58.480Z,3.28
2018-03-22T01:10:58.343Z,3.22
2018-03-22T01:11:58.300Z,3.31
2018-03-22T01:12:58.167Z,3.25
2018-03-22T01:13:58.180Z,3.22
2018-03-22T01:14:58.001Z,3.17
2018-03-22T01:15:57.984Z,3.26
2018-03-22T01:16:57.853Z,3.37
2018-03-22T01:17:57.786Z,3.34
2018-03-22T01:18:57.667Z,3.16
2018-03-22T01:19:57.706Z,3.16
2018-03-22T01:20:57.510Z,3.10
2018-03-22T01:21:57.552Z,3.10
2018-03-22T01:22:57.340Z,3.19
2018-03-22T01:23:57.316Z,3.15
2018-03-22T01:24:57.169Z,3.25
2018-03-22T01:25:57.127Z,3.23
2018-03-22T01:26:57.926Z,3.25
2018-03-22T01:27:56.969Z,3.20
2018-03-22T01:28:56.827Z,3.19
2018-03-22T01:29:56.885Z,3.15
2018-03-22T01:30:56.672Z,3.12
2018-03-22T01:31:56.692Z,3.20
2018-03-22T01:32:56.515Z,3.16
2018-03-22T01:35:38.346Z,3.25
2018-03-22T01:36:38.416Z,3.25
2018-03-22T01:37:38.204Z,3.25
2018-03-22T01:38:38.182Z,3.23
2018-03-22T01:39:38.021Z,3.25
2018-03-22T01:40:37.977Z,3.34
2018-03-22T01:41:37.847Z,3.25
2018-03-22T01:42:37.827Z,3.20
2018-03-22T01:43:37.685Z,3.16
2018-03-22T01:44:37.695Z,3.15
2018-03-22T01:45:37.511Z,3.13
2018-03-22T01:46:37.505Z,3.15
2018-03-22T01:47:37.479Z,3.10
2018-03-22T01:48:37.309Z,3.20
2018-03-22T01:49:37.177Z,3.23
2018-03-22T01:50:37.923Z,3.16
2018-03-22T01:51:37.008Z,3.26
2018-03-22T01:52:37.072Z,3.31
2018-03-22T01:53:36.872Z,3.28
2018-03-22T01:54:36.839Z,3.26
2018-03-22T01:55:36.686Z,3.34
2018-03-22T01:56:36.645Z,3.37
2018-03-22T01:57:36.522Z,3.35
2018-03-22T01:58:36.488Z,3.31
2018-03-22T01:59:36.338Z,3.39
2018-03-22T02:00:36.393Z,3.37
2018-03-22T02:01:36.178Z,3.35
2018-03-22T02:02:36.178Z,3.44
2018-03-22T02:03:36.057Z,3.46
2018-03-22T02:04:35.982Z,3.50
2018-03-22T02:05:35.848Z,3.39
2018-03-22T02:06:35.893Z,3.30
2018-03-22T02:07:35.690Z,3.39
2018-03-22T02:08:35.714Z,3.37
2018-03-22T02:09:35.538Z,3.37
2018-03-22T02:10:35.513Z,3.54
2018-03-22T02:11:35.346Z,3.50
2018-03-22T02:12:35.317Z,3.56
2018-03-22T02:13:35.186Z,3.56
2018-03-22T02:14:35.168Z,3.56
2018-03-22T02:15:35.014Z,3.50
2018-03-22T02:16:35.037Z,3.54
2018-03-22T02:17:34.862Z,3.49
2018-03-22T02:18:35.055Z,3.62
2018-03-22T02:19:34.715Z,3.56
2018-03-22T02:20:34.663Z,3.74
2018-03-22T02:21:34.515Z,3.71
2018-03-22T02:22:34.465Z,3.67
2018-03-22T02:23:34.363Z,3.74
2018-03-22T02:24:34.408Z,3.75
2018-03-22T02:25:34.189Z,3.81
2018-03-22T02:26:34.188Z,3.86
2018-03-22T02:27:34.032Z,3.93
2018-03-22T02:28:33.996Z,3.95
2018-03-22T02:29:33.887Z,4.00
2018-03-22T02:30:33.811Z,4.17
2018-03-22T02:31:33.684Z,4.25
2018-03-22T02:32:33.712Z,4.35
2018-03-22T02:33:33.515Z,4.49
2018-03-22T02:34:33.528Z,4.68
2018-03-22T02:35:33.365Z,4.68
2018-03-22T02:36:33.338Z,4.84
2018-03-22T02:37:33.202Z,4.86
2018-03-22T02:38:33.254Z,4.90
2018-03-22T02:39:33.017Z,4.86
2018-03-22T02:40:33.080Z,4.94
2018-03-22T02:41:32.858Z,4.93
2018-03-22T02:42:32.869Z,5.02
2018-03-22T02:43:32.686Z,4.93
2018-03-22T02:46:14.872Z,4.94
2018-03-22T02:47:14.870Z,5.02
2018-03-22T02:48:14.702Z,5.01
2018-03-22T02:49:14.682Z,5.01
2018-03-22T02:50:14.589Z,5.02
2018-03-22T02:51:14.512Z,5.09
2018-03-22T02:52:14.366Z,5.05
2018-03-22T02:53:14.451Z,5.01
2018-03-22T02:54:14.202Z,5.04
2018-03-22T02:55:14.200Z,5.06
2018-03-22T02:56:14.067Z,5.04
2018-03-22T02:57:14.009Z,5.05
2018-03-22T02:58:13.864Z,5.05
2018-03-22T02:59:13.817Z,5.05
2018-03-22T03:00:13.700Z,5.17
2018-03-22T03:01:13.756Z,5.11
2018-03-22T03:02:13.538Z,5.15
2018-03-22T03:03:13.642Z,5.02
2018-03-22T03:04:13.376Z,5.11
2018-03-22T03:05:13.355Z,5.05
2018-03-22T03:06:13.250Z,5.12
2018-03-22T03:07:13.204Z,5.05
2018-03-22T03:08:13.041Z,5.11
2018-03-22T03:09:13.067Z,5.09
2018-03-22T03:10:12.870Z,5.06
2018-03-22T03:11:12.900Z,5.17
2018-03-22T03:12:12.741Z,5.12
2018-03-22T03:13:12.684Z,5.11
2018-03-22T03:14:12.550Z,5.09
2018-03-22T03:15:12.594Z,5.01
2018-03-22T03:16:12.412Z,5.04
2018-03-22T03:17:12.451Z,4.97
2018-03-22T03:18:12.214Z,5.08
2018-03-22T03:19:12.208Z,5.06
2018-03-22T03:20:12.065Z,5.04
2018-03-22T03:21:12.071Z,5.14
2018-03-22T03:22:11.895Z,5.12
2018-03-22T03:23:11.941Z,5.01
2018-03-22T03:24:11.720Z,5.04
2018-03-22T03:25:11.741Z,5.01
2018-03-22T03:26:11.707Z,5.06
2018-03-22T03:27:11.545Z,5.20
2018-03-22T03:28:11.395Z,5.02
2018-03-22T03:29:11.926Z,5.15
2018-03-22T03:30:11.232Z,5.01
2018-03-22T03:31:11.268Z,5.08
2018-03-22T03:32:11.077Z,5.09
2018-03-22T03:33:11.083Z,5.05
2018-03-22T03:34:10.901Z,5.04
2018-03-22T03:35:10.885Z,4.97
2018-03-22T03:36:10.734Z,5.04
2018-03-22T03:37:10.724Z,5.08
2018-03-22T03:38:10.577Z,5.01
2018-03-22T03:39:10.605Z,4.97
2018-03-22T03:40:10.403Z,4.99
2018-03-22T03:41:10.411Z,4.97
2018-03-22T03:42:10.262Z,4.97
2018-03-22T03:43:10.217Z,5.01
2018-03-22T03:44:10.095Z,5.01
2018-03-22T03:45:10.033Z,4.96
2018-03-22T03:46:09.909Z,4.96
2018-03-22T03:47:09.945Z,5.01
2018-03-22T03:48:09.759Z,5.05
2018-03-22T03:49:09.751Z,5.04
2018-03-22T03:50:09.576Z,5.02
2018-03-22T03:51:09.563Z,4.96
2018-03-22T03:52:09.483Z,4.93
2018-03-22T03:53:09.392Z,5.01
2018-03-22T03:54:09.254Z,4.97
2018-03-22T03:55:09.286Z,4.96
2018-03-22T03:56:09.100Z,4.94
2018-03-22T03:57:09.083Z,4.97
2018-03-22T03:58:08.941Z,5.01
2018-03-22T03:59:08.977Z,4.91
2018-03-22T04:00:08.766Z,4.94
2018-03-22T04:01:09.135Z,5.04
2018-03-22T04:02:08.616Z,5.02
2018-03-22T04:03:09.489Z,5.01
2018-03-22T04:04:08.428Z,4.93
2018-03-22T04:05:08.447Z,5.02
2018-03-22T04:06:08.266Z,4.97
2018-03-22T04:07:08.221Z,5.02
2018-03-22T04:08:08.098Z,4.99
2018-03-22T04:09:08.134Z,4.93
2018-03-22T04:10:07.959Z,4.91
2018-03-22T04:11:07.945Z,5.06
2018-03-22T04:12:07.769Z,4.97
2018-03-22T04:13:07.753Z,5.06
2018-03-22T04:14:07.606Z,4.97
2018-03-22T04:15:07.604Z,4.93
2018-03-22T04:16:07.557Z,5.01
2018-03-22T04:17:07.472Z,5.01
2018-03-22T04:18:07.279Z,5.06
2018-03-22T04:19:07.386Z,4.94
2018-03-22T04:20:07.125Z,5.02
2018-03-22T04:21:07.117Z,4.93
2018-03-22T04:22:06.954Z,4.96
2018-03-22T04:23:07.001Z,5.04
2018-03-22T04:24:06.784Z,4.97
2018-03-22T04:25:06.805Z,4.99
2018-03-22T04:26:06.630Z,4.96
2018-03-22T04:27:06.627Z,4.96
2018-03-22T04:28:06.455Z,4.99
2018-03-22T04:29:06.946Z,4.87
2018-03-22T04:30:06.293Z,4.96
2018-03-22T04:31:06.267Z,4.96
2018-03-22T04:32:06.135Z,4.93
2018-03-22T04:33:06.147Z,5.01
2018-03-22T04:34:05.974Z,5.02
2018-03-22T04:35:05.953Z,5.01
2018-03-22T04:36:05.816Z,4.97
2018-03-22T04:37:05.765Z,4.90
2018-03-22T04:38:05.640Z,4.88
2018-03-22T04:39:05.680Z,4.96
2018-03-22T04:40:05.461Z,4.84
2018-03-22T04:41:05.511Z,4.83
2018-03-22T04:42:05.318Z,4.96
2018-03-22T04:43:05.299Z,5.04
2018-03-22T04:44:05.139Z,4.97
2018-03-22T04:45:05.094Z,5.01
2018-03-22T04:46:04.964Z,4.91
2018-03-22T04:47:04.942Z,5.06
2018-03-22T04:48:04.815Z,5.05
2018-03-22T04:49:04.828Z,4.97
2018-03-22T04:50:04.638Z,5.09
2018-03-22T04:51:04.625Z,5.08
2018-03-22T04:52:04.606Z,5.02
2018-03-22T04:53:04.435Z,5.04
2018-03-22T04:54:04.314Z,5.06
2018-03-22T04:55:04.351Z,4.99
2018-03-22T04:56:04.148Z,5.08
2018-03-22T04:57:04.153Z,5.01
2018-03-22T04:58:04.001Z,4.97
2018-03-22T04:59:03.960Z,4.96
2018-03-22T05:00:03.829Z,5.01
2018-03-22T05:01:03.777Z,5.02
2018-03-22T05:02:03.652Z,5.04
2018-03-22T05:03:04.645Z,4.87
2018-03-22T05:04:03.485Z,4.91
2018-03-22T05:05:03.493Z,5.02
2018-03-22T05:06:03.900Z,5.05
2018-03-22T05:08:45.386Z,4.97
2018-03-22T05:09:45.407Z,4.96
2018-03-22T05:10:45.210Z,4.97
2018-03-22T05:11:45.206Z,4.96
2018-03-22T05:12:45.073Z,5.06
2018-03-22T05:13:45.010Z,4.96
2018-03-22T05:14:44.887Z,5.02
2018-03-22T05:15:44.933Z,4.91
2018-03-22T05:16:44.719Z,4.99
2018-03-22T05:17:44.757Z,4.96
2018-03-22T05:18:44.679Z,4.96
2018-03-22T05:19:44.539Z,5.02
2018-03-22T05:20:44.387Z,5.05
2018-03-22T05:21:44.354Z,5.02
2018-03-22T05:22:44.260Z,4.96
2018-03-22T05:23:44.264Z,4.99
2018-03-22T05:24:44.065Z,4.96
2018-03-22T05:25:44.071Z,4.96
2018-03-22T05:26:43.896Z,4.97
2018-03-22T05:27:44.938Z,5.04
2018-03-22T05:28:43.723Z,5.05
2018-03-22T05:29:43.685Z,4.96
2018-03-22T05:30:43.567Z,4.97
2018-03-22T05:31:44.452Z,5.02
2018-03-22T05:32:43.400Z,5.08
2018-03-22T05:33:43.438Z,5.02
2018-03-22T05:34:43.235Z,5.05
2018-03-22T05:37:25.380Z,4.96
2018-03-22T05:38:25.418Z,4.94
2018-03-22T05:39:25.224Z,5.01
2018-03-22T05:40:25.235Z,4.96
2018-03-22T05:41:25.048Z,4.93
2018-03-22T05:42:25.035Z,5.01
2018-03-22T05:43:24.889Z,4.96
2018-03-22T05:44:24.868Z,4.97
2018-03-22T05:45:24.716Z,5.09
2018-03-22T05:46:24.778Z,5.08
2018-03-22T05:47:24.572Z,5.01
2018-03-22T05:48:24.569Z,4.96
2018-03-22T05:49:24.403Z,4.99
2018-03-22T05:50:24.370Z,5.02
2018-03-22T05:51:24.218Z,5.01
2018-03-22T05:52:24.176Z,5.01
2018-03-22T05:53:24.054Z,5.04
2018-03-22T05:54:24.155Z,5.04
2018-03-22T05:55:23.961Z,4.90
2018-03-22T05:56:23.941Z,4.87
2018-03-22T05:57:23.727Z,4.83
2018-03-22T05:58:23.729Z,4.79
2018-03-22T05:59:23.571Z,4.88
2018-03-22T06:00:23.557Z,4.88
2018-03-22T06:01:23.396Z,4.86
2018-03-22T06:02:23.421Z,4.88
2018-03-22T06:03:23.234Z,4.84
2018-03-22T06:04:23.222Z,4.79
2018-03-22T06:05:23.082Z,4.84
2018-03-22T06:06:23.035Z,4.83
2018-03-22T06:07:22.932Z,4.80
2018-03-22T06:08:22.948Z,4.83
2018-03-22T06:09:22.746Z,4.80
2018-03-22T06:10:23.137Z,4.86
2018-03-22T06:11:22.581Z,4.75
2018-03-22T06:14:04.440Z,4.69
2018-03-22T06:15:04.351Z,4.68
2018-03-22T06:16:04.299Z,4.71
2018-03-22T06:17:04.179Z,4.64
2018-03-22T06:18:04.079Z,4.53
2018-03-22T06:19:04.967Z,4.61
2018-03-22T06:20:03.889Z,4.47
2018-03-22T06:21:03.922Z,4.49
2018-03-22T06:22:03.731Z,4.47
2018-03-22T06:23:03.696Z,4.44
2018-03-22T06:24:03.598Z,4.42
2018-03-22T06:25:03.603Z,4.38
2018-03-22T06:26:03.389Z,4.32
2018-03-22T06:27:03.440Z,4.38
2018-03-22T06:28:03.236Z,4.42
2018-03-22T06:29:03.219Z,4.31
2018-03-22T06:30:03.062Z,4.34
2018-03-22T06:31:03.035Z,4.24
2018-03-22T06:32:02.929Z,4.29
2018-03-22T06:33:02.869Z,4.29
2018-03-22T06:34:02.732Z,4.32
2018-03-22T06:35:02.746Z,4.26
2018-03-22T06:36:02.568Z,4.16
2018-03-22T06:37:02.557Z,4.17
2018-03-22T06:38:02.424Z,4.10
2018-03-22T06:39:02.430Z,4.11
2018-03-22T06:40:02.242Z,4.16
2018-03-22T06:41:02.275Z,4.16
2018-03-22T06:42:02.074Z,4.14
2018-03-22T06:43:02.144Z,4.14
2018-03-22T06:44:01.932Z,4.16
2018-03-22T06:45:01.921Z,4.07
2018-03-22T06:46:01.762Z,3.96
2018-03-22T06:48:43.977Z,3.96
2018-03-22T06:49:43.905Z,3.95
2018-03-22T06:50:43.723Z,3.80
2018-03-22T06:51:43.764Z,3.98
2018-03-22T06:52:43.561Z,3.86
2018-03-22T06:53:43.510Z,4.20
2018-03-22T06:54:43.389Z,4.39
2018-03-22T06:55:43.430Z,4.46
2018-03-22T06:56:43.227Z,4.54
2018-03-22T06:57:43.283Z,4.77
2018-03-22T06:58:43.059Z,4.69
2018-03-22T06:59:43.085Z,4.71
2018-03-22T07:00:42.894Z,4.64
2018-03-22T07:01:42.862Z,4.62
2018-03-22T07:02:42.735Z,4.84
2018-03-22T07:03:42.766Z,4.71
2018-03-22T07:04:42.580Z,4.84
2018-03-22T07:05:42.610Z,4.84
2018-03-22T07:06:42.405Z,5.01
2018-03-22T07:07:42.959Z,4.88
2018-03-22T07:08:42.231Z,4.99
2018-03-22T07:09:42.199Z,4.90
2018-03-22T07:10:42.085Z,5.02
2018-03-22T07:11:42.112Z,5.15
2018-03-22T07:12:41.904Z,5.04
2018-03-22T07:13:41.929Z,4.99
2018-03-22T07:14:41.737Z,4.86
2018-03-22T07:15:41.763Z,4.68
2018-03-22T07:16:41.593Z,4.65
2018-03-22T07:17:41.586Z,4.53
2018-03-22T07:18:41.430Z,4.47
2018-03-22T07:19:41.446Z,4.44
2018-03-22T07:20:41.268Z,4.38
2018-03-22T07:21:41.285Z,4.43
2018-03-22T07:22:41.075Z,4.43
2018-03-22T07:23:41.051Z,4.50
2018-03-22T07:24:40.921Z,4.39
2018-03-22T07:25:40.860Z,4.54
2018-03-22T07:26:40.775Z,4.51
2018-03-22T07:27:40.782Z,4.43
2018-03-22T07:28:40.588Z,5.24
2018-03-22T07:29:40.587Z,5.26
2018-03-22T07:30:40.429Z,5.33
2018-03-22T07:31:40.429Z,5.08
2018-03-22T07:32:40.256Z,4.99
2018-03-22T07:33:40.214Z,4.94
2018-03-22T07:34:40.080Z,4.90
2018-03-22T07:35:40.120Z,5.01
2018-03-22T07:36:39.934Z,4.80
2018-03-22T07:37:39.911Z,4.74
2018-03-22T07:38:39.783Z,4.72
2018-03-22T07:39:39.737Z,4.65
2018-03-22T07:40:39.625Z,4.51
2018-03-22T07:41:39.678Z,4.56
2018-03-22T07:42:39.429Z,4.61
2018-03-22T07:43:39.448Z,4.49
2018-03-22T07:44:39.263Z,4.54
2018-03-22T07:45:39.252Z,4.59
2018-03-22T07:46:39.122Z,4.56
2018-03-22T07:47:39.028Z,4.61
2018-03-22T07:48:38.936Z,4.59
2018-03-22T07:49:38.922Z,4.56
2018-03-22T07:50:38.774Z,4.59
2018-03-22T07:51:38.824Z,4.69
2018-03-22T07:52:38.677Z,4.68
2018-03-22T07:53:38.543Z,4.72
2018-03-22T07:54:38.545Z,4.67
2018-03-22T07:55:38.362Z,4.64
2018-03-22T07:56:38.288Z,4.64
2018-03-22T07:57:38.242Z,4.57
2018-03-22T07:58:38.107Z,4.57
2018-03-22T07:59:38.123Z,4.51
2018-03-22T08:00:37.937Z,4.53
2018-03-22T08:01:37.930Z,4.50
2018-03-22T08:02:37.785Z,4.68
2018-03-22T08:03:37.698Z,4.59
2018-03-22T08:04:37.607Z,4.65
2018-03-22T08:05:37.566Z,4.68
2018-03-22T08:06:37.444Z,4.71
2018-03-22T08:07:37.397Z,4.68
2018-03-22T08:08:37.277Z,4.72
2018-03-22T08:09:37.239Z,4.72
2018-03-22T08:10:37.116Z,4.67
2018-03-22T08:11:37.037Z,4.68
2018-03-22T08:12:36.975Z,4.71
2018-03-22T08:13:36.898Z,4.71
2018-03-22T08:14:36.856Z,4.68
2018-03-22T08:15:36.714Z,4.68
2018-03-22T08:16:36.614Z,4.68
2018-03-22T08:17:36.577Z,4.67
2018-03-22T08:18:36.462Z,4.72
2018-03-22T08:19:36.373Z,4.80
2018-03-22T08:20:36.351Z,4.83
2018-03-22T08:21:36.214Z,4.83
2018-03-22T08:22:36.244Z,4.84
2018-03-22T08:23:36.053Z,4.72
2018-03-22T08:24:35.972Z,4.80
2018-03-22T08:25:35.888Z,4.86
2018-03-22T08:26:36.427Z,4.87
2018-03-22T08:27:35.715Z,4.80
2018-03-22T08:28:35.637Z,4.86
2018-03-22T08:29:35.577Z,4.86
2018-03-22T08:30:35.457Z,4.86
2018-03-22T08:31:35.411Z,4.80
2018-03-22T08:32:35.329Z,4.96
2018-03-22T08:33:35.273Z,4.99
2018-03-22T08:34:35.146Z,4.94
2018-03-22T08:35:35.112Z,4.93
2018-03-22T08:36:34.974Z,4.96
2018-03-22T08:37:34.938Z,4.84
2018-03-22T08:38:34.835Z,4.80
2018-03-22T08:39:34.733Z,4.80
2018-03-22T08:40:34.660Z,4.88
2018-03-22T08:41:34.569Z,4.84
2018-03-22T08:42:34.471Z,4.86
2018-03-22T08:43:34.398Z,4.86
2018-03-22T08:44:34.336Z,4.83
2018-03-22T08:45:34.232Z,4.75
2018-03-22T08:46:34.141Z,4.83
2018-03-22T08:47:34.121Z,4.87
2018-03-22T08:48:33.974Z,4.96
2018-03-22T08:49:33.914Z,4.97
2018-03-22T08:50:33.864Z,5.01
2018-03-22T08:51:33.755Z,4.86
2018-03-22T08:52:33.648Z,4.91
2018-03-22T08:53:33.572Z,4.79
2018-03-22T08:54:33.498Z,4.87
2018-03-22T08:55:33.428Z,4.88
2018-03-22T08:56:33.320Z,4.86
2018-03-22T08:57:33.261Z,4.93
2018-03-22T08:58:33.151Z,4.93
2018-03-22T08:59:33.083Z,4.93
2018-03-22T09:00:33.007Z,4.79
2018-03-22T09:01:32.940Z,4.94
2018-03-22T09:02:32.888Z,4.94
2018-03-22T09:03:32.753Z,4.88
2018-03-22T09:04:32.671Z,4.87
2018-03-22T09:05:32.589Z,4.87
2018-03-22T09:06:32.492Z,4.94
2018-03-22T09:07:32.506Z,4.96
2018-03-22T09:08:32.365Z,4.93
2018-03-22T09:09:32.253Z,4.88
2018-03-22T09:10:32.239Z,4.86
2018-03-22T09:11:32.106Z,4.90
2018-03-22T09:12:31.996Z,4.91
2018-03-22T09:13:31.946Z,4.99
2018-03-22T09:14:31.830Z,4.99
2018-03-22T09:15:31.764Z,4.97
2018-03-22T09:16:31.671Z,5.01
2018-03-22T09:17:31.631Z,5.02
2018-03-22T09:18:31.503Z,4.91
2018-03-22T09:19:31.432Z,4.79
2018-03-22T09:20:31.336Z,4.80
2018-03-22T09:21:31.283Z,4.86
2018-03-22T09:22:31.192Z,4.99
2018-03-22T09:23:31.103Z,4.99
2018-03-22T09:24:31.033Z,4.83
2018-03-22T09:25:30.950Z,4.84
2018-03-22T09:26:30.849Z,4.84
2018-03-22T09:27:30.801Z,4.80
2018-03-22T09:28:30.692Z,4.87
2018-03-22T09:29:30.604Z,4.87
2018-03-22T09:30:30.519Z,4.94
2018-03-22T09:31:30.440Z,4.96
2018-03-22T09:32:30.367Z,4.97
2018-03-22T09:33:30.297Z,5.02
2018-03-22T09:34:30.193Z,5.02
2018-03-22T09:35:30.115Z,4.99
2018-03-22T09:36:30.043Z,5.08
2018-03-22T09:37:29.953Z,5.01
2018-03-22T09:38:29.891Z,5.02
2018-03-22T09:39:29.796Z,4.97
2018-03-22T09:40:29.754Z,5.08
2018-03-22T09:41:29.620Z,5.01
2018-03-22T09:42:29.532Z,5.06
2018-03-22T09:43:29.479Z,5.15
2018-03-22T09:44:29.368Z,5.11
2018-03-22T09:45:29.308Z,5.14
2018-03-22T09:46:29.205Z,5.15
2018-03-22T09:47:29.123Z,5.19
2018-03-22T09:48:29.053Z,5.23
2018-03-22T09:49:28.973Z,5.22
2018-03-22T09:50:28.876Z,5.24
2018-03-22T09:51:28.809Z,5.22
2018-03-22T09:52:28.703Z,5.27
2018-03-22T09:53:28.655Z,5.29
2018-03-22T09:54:28.532Z,5.29
2018-03-22T09:55:28.473Z,5.38
2018-03-22T09:56:28.379Z,5.30
2018-03-22T09:57:28.314Z,5.29
2018-03-22T09:58:28.241Z,5.38
2018-03-22T09:59:28.138Z,5.37
2018-03-22T10:00:28.121Z,5.37
2018-03-22T10:01:27.974Z,5.42
2018-03-22T10:02:28.948Z,5.37
2018-03-22T10:03:27.841Z,5.30
2018-03-22T10:04:27.748Z,5.47
2018-03-22T10:05:27.653Z,5.42
2018-03-22T10:06:27.566Z,5.47
2018-03-22T10:07:27.499Z,5.37
2018-03-22T10:08:27.449Z,5.38
2018-03-22T10:09:27.335Z,5.45
2018-03-22T10:10:27.252Z,5.52
2018-03-22T10:11:27.153Z,5.51
2018-03-22T10:12:27.056Z,5.47
2018-03-22T10:13:27.048Z,5.52
2018-03-22T10:14:26.923Z,5.44
2018-03-22T10:15:26.871Z,5.49
2018-03-22T10:16:26.723Z,5.47
2018-03-22T10:17:26.658Z,5.56
2018-03-22T10:18:26.573Z,5.52
2018-03-22T10:19:26.517Z,5.70
2018-03-22T10:20:26.429Z,5.60
2018-03-22T10:21:26.336Z,5.67
2018-03-22T10:22:26.244Z,5.67
2018-03-22T10:23:26.166Z,5.73
2018-03-22T10:24:26.074Z,5.67
2018-03-22T10:25:26.043Z,5.80
2018-03-22T10:26:25.908Z,5.84
2018-03-22T10:27:25.850Z,5.88
2018-03-22T10:28:25.749Z,5.90
2018-03-22T10:29:25.685Z,5.93
2018-03-22T10:30:25.707Z,5.88
2018-03-22T10:31:25.507Z,5.90
2018-03-22T10:32:25.417Z,5.88
2018-03-22T10:33:25.391Z,5.99
2018-03-22T10:34:25.273Z,5.92
2018-03-22T10:35:25.239Z,5.90
2018-03-22T10:36:25.560Z,5.93
2018-03-22T10:37:25.039Z,5.95
2018-03-22T10:38:24.943Z,5.87
2018-03-22T10:39:24.889Z,5.85
2018-03-22T10:40:24.790Z,5.80
2018-03-22T10:41:24.702Z,5.87
2018-03-22T10:42:24.604Z,5.92
2018-03-22T10:43:24.554Z,5.95
2018-03-22T10:44:24.453Z,5.84
2018-03-22T10:45:24.370Z,5.87
2018-03-22T10:46:24.282Z,5.96
2018-03-22T10:47:24.217Z,6.02
2018-03-22T10:48:24.191Z,6.03
2018-03-22T10:49:24.043Z,6.08
2018-03-22T10:50:23.956Z,6.28
2018-03-22T10:51:23.915Z,6.24
2018-03-22T10:52:23.799Z,6.24
2018-03-22T10:53:23.732Z,6.20
2018-03-22T10:54:23.627Z,6.17
2018-03-22T10:55:23.557Z,6.28
2018-03-22T10:56:23.484Z,6.17
2018-03-22T10:57:23.382Z,6.17
2018-03-22T10:58:23.333Z,6.21
2018-03-22T10:59:23.231Z,6.19
2018-03-22T11:00:23.242Z,6.17
2018-03-22T11:01:23.075Z,6.21
2018-03-22T11:02:23.011Z,6.21
2018-03-22T11:03:23.039Z,6.28
2018-03-22T11:04:22.813Z,6.20
2018-03-22T11:05:22.748Z,6.25
2018-03-22T11:06:22.761Z,6.21
2018-03-22T11:07:22.580Z,6.28
2018-03-22T11:08:22.506Z,6.33
2018-03-22T11:09:22.423Z,6.32
2018-03-22T11:10:22.326Z,6.33
2018-03-22T11:11:22.245Z,6.33
2018-03-22T11:12:22.170Z,6.42
2018-03-22T11:13:22.164Z,6.39
2018-03-22T11:14:21.993Z,6.30
2018-03-22T11:15:21.924Z,6.42
2018-03-22T11:16:21.841Z,6.55
2018-03-22T11:17:21.749Z,6.55
2018-03-22T11:18:21.690Z,6.58
2018-03-22T11:19:22.613Z,6.57
2018-03-22T11:20:21.508Z,6.55
2018-03-22T11:21:21.425Z,6.69
2018-03-22T11:22:21.362Z,6.58
2018-03-22T11:23:21.307Z,6.64
2018-03-22T11:24:21.212Z,6.55
2018-03-22T11:25:21.119Z,6.55
2018-03-22T11:26:21.061Z,6.71
2018-03-22T11:27:20.938Z,6.69
2018-03-22T11:28:20.850Z,6.68
2018-03-22T11:29:20.936Z,6.82
2018-03-22T11:30:20.686Z,6.78
2018-03-22T11:31:20.621Z,6.73
2018-03-22T11:32:20.525Z,6.65
2018-03-22T11:33:20.457Z,6.81
2018-03-22T11:34:20.445Z,6.90
2018-03-22T11:35:21.057Z,6.82
2018-03-22T11:36:20.207Z,6.81
2018-03-22T11:37:20.147Z,6.97
2018-03-22T11:38:20.029Z,6.96
2018-03-22T11:39:20.054Z,6.94
2018-03-22T11:40:19.902Z,6.94
2018-03-22T11:41:19.847Z,6.91
2018-03-22T11:42:19.731Z,7.04
2018-03-22T11:43:19.644Z,7.07
2018-03-22T11:44:19.552Z,7.07
2018-03-22T11:45:19.499Z,6.96
2018-03-22T11:46:19.392Z,7.04
2018-03-22T11:47:19.322Z,6.93
2018-03-22T11:48:19.250Z,6.89
2018-03-22T11:49:19.155Z,6.93
2018-03-22T11:50:19.096Z,7.01
2018-03-22T11:51:19.020Z,7.01
2018-03-22T11:52:18.907Z,6.94
2018-03-22T11:53:18.824Z,7.01
2018-03-22T11:54:18.749Z,6.97
2018-03-22T11:55:18.698Z,6.99
2018-03-22T11:56:18.597Z,6.96
2018-03-22T11:57:18.505Z,7.01
2018-03-22T11:58:18.410Z,6.97
2018-03-22T11:59:18.345Z,6.96
2018-03-22T12:00:18.269Z,7.08
2018-03-22T12:01:18.199Z,7.00
2018-03-22T12:02:18.169Z,7.12
2018-03-22T12:03:18.027Z,7.08
2018-03-22T12:04:17.946Z,7.08
2018-03-22T12:05:17.880Z,7.05
2018-03-22T12:06:17.775Z,7.08
2018-03-22T12:07:17.749Z,7.07
2018-03-22T12:08:17.593Z,6.99
2018-03-22T12:09:17.533Z,7.04
2018-03-22T12:10:17.440Z,7.09
2018-03-22T12:11:17.407Z,7.01
2018-03-22T12:12:17.274Z,7.11
2018-03-22T12:13:17.215Z,7.09
2018-03-22T12:14:17.115Z,7.14
2018-03-22T12:15:17.064Z,7.21
2018-03-22T12:16:16.969Z,7.09
2018-03-22T12:17:16.886Z,7.19
2018-03-22T12:18:16.789Z,7.14
2018-03-22T12:19:16.719Z,7.16
2018-03-22T12:20:16.639Z,7.32
2018-03-22T12:21:16.565Z,7.32
2018-03-22T12:22:16.472Z,7.33
2018-03-22T12:23:16.390Z,7.30
2018-03-22T12:24:16.296Z,7.32
2018-03-22T12:25:16.229Z,7.19
2018-03-22T12:26:16.170Z,7.15
2018-03-22T12:27:16.170Z,7.16
2018-03-22T12:28:15.977Z,7.18
2018-03-22T12:29:15.920Z,7.27
2018-03-22T12:30:15.821Z,7.12
2018-03-22T12:31:15.860Z,7.18
2018-03-22T12:32:15.698Z,7.18
2018-03-22T12:33:15.662Z,7.16
2018-03-22T12:34:15.496Z,7.18
2018-03-22T12:35:15.479Z,7.14
2018-03-22T12:36:15.320Z,7.30
2018-03-22T12:37:15.315Z,7.33
2018-03-22T12:38:15.205Z,7.37
2018-03-22T12:39:15.187Z,7.29
2018-03-22T12:40:15.003Z,7.32
2018-03-22T12:41:14.998Z,7.48
2018-03-22T12:42:14.843Z,7.50
2018-03-22T12:43:14.842Z,7.51
2018-03-22T12:44:14.683Z,7.55
2018-03-22T12:45:14.722Z,7.58
2018-03-22T12:46:14.532Z,7.54
2018-03-22T12:47:14.520Z,7.51
2018-03-22T12:48:14.377Z,7.55
2018-03-22T12:49:14.373Z,7.50
2018-03-22T12:50:14.210Z,7.51
2018-03-22T12:51:14.236Z,7.47
2018-03-22T12:52:14.042Z,7.51
2018-03-22T12:53:14.048Z,7.52
2018-03-22T12:54:13.899Z,7.45
2018-03-22T12:55:13.913Z,7.47
2018-03-22T12:56:13.702Z,7.52
2018-03-22T12:57:13.667Z,7.55
2018-03-22T12:58:13.542Z,7.66
2018-03-22T12:59:13.605Z,7.77
2018-03-22T13:00:13.378Z,7.99
2018-03-22T13:01:13.383Z,8.04
2018-03-22T13:02:13.212Z,7.92
2018-03-22T13:03:13.193Z,7.92
2018-03-22T13:04:13.090Z,7.96
2018-03-22T13:05:13.103Z,7.92
2018-03-22T13:06:12.905Z,8.02
2018-03-22T13:07:12.920Z,8.02
2018-03-22T13:08:12.750Z,8.17
2018-03-22T13:09:12.735Z,8.06
2018-03-22T13:10:12.590Z,8.24
2018-03-22T13:11:12.525Z,8.21
2018-03-22T13:12:12.414Z,8.17
2018-03-22T13:13:12.446Z,8.24
2018-03-22T13:14:12.291Z,8.76
2018-03-22T13:16:54.449Z,8.73
2018-03-22T13:17:54.467Z,8.78
2018-03-22T13:18:54.322Z,8.63
2018-03-22T13:19:54.306Z,8.68
2018-03-22T13:20:54.137Z,8.79
2018-03-22T13:21:54.166Z,8.93
2018-03-22T13:22:53.978Z,9.03
2018-03-22T13:23:53.979Z,8.89
2018-03-22T13:24:53.827Z,8.75
2018-03-22T13:25:53.796Z,8.57
2018-03-22T13:26:53.653Z,8.60
2018-03-22T13:27:53.694Z,8.60
2018-03-22T13:28:53.488Z,8.67